Time,TemperatureF,DewpointF,PressureIn,WindDirection,WindDirectionDegrees,WindSpeedMPH,WindSpeedGustMPH,Humidity,HourlyPrecipIn,Conditions,Clouds,dailyrainin,SoftwareType,DateUTC
2013-07-06 00:02:00,65.9,62.0,29.76,SW,217,2.0,-999.0,87,-99.99,,,0.00,weatherlink.com 1.10,2013-07-06 07:02:00,
2013-07-06 00:17:00,65.9,62.0,29.76,SW,229,2.0,-999.0,87,-99.99,,,0.00,weatherlink.com 1.10,2013-07-06 07:17:00,
2013-07-06 00:32:00,66.1,62.0,29.75,SW,227,0.0,-999.0,87,-99.99,,,0.00,weatherlink.com 1.10,2013-07-06 07:32:00,
2013-07-06 00:47:00,66.1,62.0,29.75,SW,227,0.0,-999.0,87,-99.99,,,0.00,weatherlink.com 1.10,2013-07-06 07:47:00,
2013-07-06 01:02:00,66.2,63.0,29.75,SW,227,0.0,-999.0,88,-99.99,,,0.00,weatherlink.com 1.10,2013-07-06 08:02:00,
2013-07-06 01:17:00,66.2,63.0,29.75,SSW,210,0.0,-999.0,88,-99.99,,,0.00,weatherlink.com 1.10,2013-07-06 08:17:00,
2013-07-06 01:32:00,66.1,63.0,29.75,South,184,0.0,-999.0,88,-99.99,,,0.00,weatherlink.com 1.10,2013-07-06 08:32:00,
2013-07-06 01:47:00,66.1,63.0,29.74,South,183,0.0,-999.0,88,-99.99,,,0.00,weatherlink.com 1.10,2013-07-06 08:47:00,
2013-07-06 02:02:00,66.0,62.0,29.74,South,183,0.0,-999.0,88,-99.99,,,0.00,weatherlink.com 1.10,2013-07-06 09:02:00,
2013-07-06 02:17:00,66.0,62.0,29.74,South,184,0.0,-999.0,88,-99.99,,,0.00,weatherlink.com 1.10,2013-07-06 09:17:00,
2013-07-06 02:32:00,65.9,62.0,29.74,South,184,0.0,-999.0,88,-99.99,,,0.00,weatherlink.com 1.10,2013-07-06 09:32:00,
2013-07-06 02:47:00,66.1,63.0,29.73,South,184,1.0,-999.0,88,-99.99,,,0.00,weatherlink.com 1.10,2013-07-06 09:47:00,
2013-07-06 03:02:00,66.2,63.0,29.73,South,184,3.0,-999.0,88,-99.99,,,0.00,weatherlink.com 1.10,2013-07-06 10:02:00,
2013-07-06 03:17:00,66.2,63.0,29.72,South,184,0.0,-999.0,88,-99.99,,,0.00,weatherlink.com 1.10,2013-07-06 10:17:00,
2013-07-06 03:32:00,66.2,63.0,29.72,South,184,0.0,-999.0,88,-99.99,,,0.00,weatherlink.com 1.10,2013-07-06 10:32:00,
2013-07-06 03:47:00,66.3,63.0,29.72,South,184,1.0,-999.0,88,-99.99,,,0.00,weatherlink.com 1.10,2013-07-06 10:47:00,
2013-07-06 04:02:00,66.3,63.0,29.72,South,184,0.0,-999.0,88,-99.99,,,0.00,weatherlink.com 1.10,2013-07-06 11:02:00,
2013-07-06 04:17:00,66.4,63.0,29.72,South,184,0.0,-999.0,88,-99.99,,,0.00,weatherlink.com 1.10,2013-07-06 11:17:00,
2013-07-06 04:32:00,66.4,63.0,29.72,South,184,0.0,-999.0,88,-99.99,,,0.00,weatherlink.com 1.10,2013-07-06 11:32:00,
2013-07-06 04:47:00,66.5,63.0,29.71,South,184,0.0,-999.0,88,-99.99,,,0.00,weatherlink.com 1.10,2013-07-06 11:47:00,
2013-07-06 05:02:00,66.6,63.0,29.72,South,184,0.0,-999.0,88,-99.99,,,0.00,weatherlink.com 1.10,2013-07-06 12:02:00,
2013-07-06 05:18:00,66.6,63.0,29.72,South,184,2.0,-999.0,88,-99.99,,,0.00,weatherlink.com 1.10,2013-07-06 12:18:00,
2013-07-06 05:32:00,66.5,63.0,29.72,South,184,1.0,-999.0,88,-99.99,,,0.00,weatherlink.com 1.10,2013-07-06 12:32:00,
2013-07-06 05:47:00,66.5,63.0,29.73,South,184,0.0,-999.0,88,-99.99,,,0.00,weatherlink.com 1.10,2013-07-06 12:47:00,
2013-07-06 06:02:00,66.4,63.0,29.73,WSW,241,0.0,-999.0,87,-99.99,,,0.00,weatherlink.com 1.10,2013-07-06 13:02:00,
2013-07-06 06:17:00,66.4,63.0,29.73,WSW,241,0.0,-999.0,87,-99.99,,,0.00,weatherlink.com 1.10,2013-07-06 13:17:00,
2013-07-06 06:32:00,66.4,63.0,29.73,WSW,245,0.0,-999.0,87,-99.99,,,0.00,weatherlink.com 1.10,2013-07-06 13:32:00,
2013-07-06 06:47:00,66.5,63.0,29.73,WSW,245,0.0,-999.0,87,-99.99,,,0.00,weatherlink.com 1.10,2013-07-06 13:47:00,
2013-07-06 07:02:00,66.6,63.0,29.74,WSW,245,0.0,-999.0,87,-99.99,,,0.00,weatherlink.com 1.10,2013-07-06 14:02:00,
2013-07-06 07:17:00,66.8,63.0,29.74,South,187,0.0,-999.0,87,-99.99,,,0.00,weatherlink.com 1.10,2013-07-06 14:17:00,
2013-07-06 07:32:00,67.1,63.0,29.74,South,187,0.0,-999.0,86,-99.99,,,0.00,weatherlink.com 1.10,2013-07-06 14:32:00,
2013-07-06 07:47:00,67.4,63.0,29.75,ESE,123,1.0,-999.0,85,-99.99,,,0.00,weatherlink.com 1.10,2013-07-06 14:47:00,
2013-07-06 08:03:00,67.7,63.0,29.75,ESE,123,0.0,-999.0,85,-99.99,,,0.00,weatherlink.com 1.10,2013-07-06 15:03:00,
2013-07-06 08:18:00,68.1,63.0,29.76,ESE,123,1.0,-999.0,83,-99.99,,,0.00,weatherlink.com 1.10,2013-07-06 15:18:00,
2013-07-06 08:33:00,68.7,63.0,29.76,SSE,166,0.0,-999.0,81,-99.99,,,0.00,weatherlink.com 1.10,2013-07-06 15:33:00,
2013-07-06 08:48:00,69.2,63.0,29.76,SSE,166,0.0,-999.0,81,-99.99,,,0.00,weatherlink.com 1.10,2013-07-06 15:48:00,
2013-07-06 09:18:00,70.2,64.0,29.76,WSW,241,3.0,-999.0,81,-99.99,,,0.00,weatherlink.com 1.10,2013-07-06 16:18:00,
2013-07-06 10:03:00,70.7,64.0,29.77,West,280,2.0,-999.0,79,-99.99,,,0.00,weatherlink.com 1.10,2013-07-06 17:03:00,
2013-07-06 10:18:00,71.6,64.0,29.77,SW,223,3.0,-999.0,78,-99.99,,,0.00,weatherlink.com 1.10,2013-07-06 17:18:00,
2013-07-06 10:33:00,71.6,64.0,29.76,WSW,254,0.0,-999.0,78,-99.99,,,0.00,weatherlink.com 1.10,2013-07-06 17:33:00,
2013-07-06 10:48:00,73.0,65.0,29.76,SSE,165,0.0,-999.0,76,-99.99,,,0.00,weatherlink.com 1.10,2013-07-06 17:48:00,
2013-07-06 11:03:00,72.6,65.0,29.76,WSW,245,3.0,-999.0,77,-99.99,,,0.00,weatherlink.com 1.10,2013-07-06 18:03:00,
2013-07-06 11:48:00,74.5,66.0,29.76,South,186,5.0,-999.0,74,-99.99,,,0.00,weatherlink.com 1.10,2013-07-06 18:48:00,
2013-07-06 12:18:00,76.0,67.0,29.75,WSW,251,5.0,-999.0,73,-99.99,,,0.00,weatherlink.com 1.10,2013-07-06 19:18:00,
2013-07-06 12:48:00,76.3,66.0,29.75,West,259,0.0,-999.0,71,-99.99,,,0.00,weatherlink.com 1.10,2013-07-06 19:48:00,
2013-07-06 13:03:00,76.5,66.0,29.74,SSW,212,7.0,-999.0,70,-99.99,,,0.00,weatherlink.com 1.10,2013-07-06 20:03:00,
2013-07-06 14:03:00,76.5,65.0,29.73,SW,220,4.0,-999.0,68,-99.99,,,0.00,weatherlink.com 1.10,2013-07-06 21:03:00,
2013-07-06 14:18:00,77.9,67.0,29.72,SSW,198,3.0,-999.0,68,-99.99,,,0.00,weatherlink.com 1.10,2013-07-06 21:18:00,
2013-07-06 15:03:00,77.0,66.0,29.71,SSW,194,4.0,-999.0,68,-99.99,,,0.00,weatherlink.com 1.10,2013-07-06 22:03:00,
2013-07-06 15:18:00,76.5,66.0,29.71,SW,227,7.0,-999.0,70,-99.99,,,0.00,weatherlink.com 1.10,2013-07-06 22:18:00,
2013-07-06 15:33:00,76.7,66.0,29.71,WSW,243,3.0,-999.0,70,-99.99,,,0.00,weatherlink.com 1.10,2013-07-06 22:33:00,
2013-07-06 16:18:00,78.2,67.0,29.69,SW,223,2.0,-999.0,68,-99.99,,,0.00,weatherlink.com 1.10,2013-07-06 23:18:00,
2013-07-06 16:48:00,77.7,66.0,29.69,SSW,213,7.0,-999.0,68,-99.99,,,0.00,weatherlink.com 1.10,2013-07-06 23:48:00,
2013-07-06 17:03:00,77.6,65.0,29.68,WSW,249,4.0,-999.0,66,-99.99,,,0.00,weatherlink.com 1.10,2013-07-07 00:03:00,
2013-07-06 17:18:00,77.5,65.0,29.68,SW,218,6.0,-999.0,66,-99.99,,,0.00,weatherlink.com 1.10,2013-07-07 00:18:00,
2013-07-06 17:48:00,78.1,65.0,29.68,West,263,1.0,-999.0,65,-99.99,,,0.00,weatherlink.com 1.10,2013-07-07 00:48:00,
2013-07-06 18:03:00,79.4,66.0,29.68,WNW,296,2.0,-999.0,64,-99.99,,,0.00,weatherlink.com 1.10,2013-07-07 01:03:00,
2013-07-06 18:18:00,79.3,66.0,29.68,SW,235,4.0,-999.0,63,-99.99,,,0.00,weatherlink.com 1.10,2013-07-07 01:18:00,
2013-07-06 19:03:00,75.5,65.0,29.68,NNE,26,3.0,-999.0,70,-99.99,,,0.00,weatherlink.com 1.10,2013-07-07 02:03:00,
2013-07-06 19:18:00,74.5,65.0,29.69,North,355,1.0,-999.0,72,-99.99,,,0.00,weatherlink.com 1.10,2013-07-07 02:18:00,
2013-07-06 20:19:00,70.6,64.0,29.71,North,350,1.0,-999.0,79,-99.99,,,0.00,weatherlink.com 1.10,2013-07-07 03:19:00,
2013-07-06 20:34:00,70.0,64.0,29.71,North,350,2.0,-999.0,80,-99.99,,,0.00,weatherlink.com 1.10,2013-07-07 03:34:00,
2013-07-06 20:49:00,69.5,63.0,29.72,North,350,0.0,-999.0,81,-99.99,,,0.00,weatherlink.com 1.10,2013-07-07 03:49:00,
2013-07-06 21:04:00,69.2,64.0,29.73,North,350,0.0,-999.0,82,-99.99,,,0.00,weatherlink.com 1.10,2013-07-07 04:04:00,
2013-07-06 21:19:00,68.9,64.0,29.73,North,350,0.0,-999.0,83,-99.99,,,0.00,weatherlink.com 1.10,2013-07-07 04:19:00,
2013-07-06 21:34:00,68.6,63.0,29.74,North,350,3.0,-999.0,83,-99.99,,,0.00,weatherlink.com 1.10,2013-07-07 04:34:00,
2013-07-06 21:48:00,68.3,63.0,29.74,North,350,0.0,-999.0,84,-99.99,,,0.00,weatherlink.com 1.10,2013-07-07 04:48:00,
2013-07-06 22:03:00,68.1,63.0,29.75,North,350,0.0,-999.0,84,-99.99,,,0.00,weatherlink.com 1.10,2013-07-07 05:03:00,
2013-07-06 22:18:00,68.1,63.0,29.75,North,350,0.0,-999.0,84,-99.99,,,0.00,weatherlink.com 1.10,2013-07-07 05:18:00,
2013-07-06 22:33:00,68.1,64.0,29.75,North,350,1.0,-999.0,85,-99.99,,,0.00,weatherlink.com 1.10,2013-07-07 05:33:00,
2013-07-06 22:48:00,68.2,63.0,29.75,North,350,0.0,-999.0,84,-99.99,,,0.00,weatherlink.com 1.10,2013-07-07 05:48:00,
2013-07-06 23:03:00,68.2,63.0,29.75,North,350,0.0,-999.0,84,-99.99,,,0.00,weatherlink.com 1.10,2013-07-07 06:03:00,
2013-07-06 23:18:00,68.0,63.0,29.75,SSW,200,2.0,-999.0,84,-99.99,,,0.00,weatherlink.com 1.10,2013-07-07 06:18:00,
2013-07-06 23:33:00,67.8,63.0,29.75,SSW,206,3.0,-999.0,85,-99.99,,,0.00,weatherlink.com 1.10,2013-07-07 06:33:00,
2013-07-06 23:48:00,67.5,63.0,29.75,SW,229,2.0,-999.0,85,-99.99,,,0.00,weatherlink.com 1.10,2013-07-07 06:48:00,